Time;durP1;ratioP1;P1;durP2;ratioP2;P2;SDS_P1;SDS_P2;PMS_P1;PMS_P2;Temp;Humidity;BMP_temperature;BMP_pressure;BME280_temperature;BME280_humidity;BME280_pressure;Samples;Min_cycle;Max_cycle;Signal;HPM_P1;HPM_P2
2023/04/03 00:01:00;;;;;;;13.60;7.40;;;;;;;10.55;57.35;99523.53;5015404;28;20036;-65
2023/04/03 00:03:25;;;;;;;10.88;7.22;;;;;;;10.69;57.88;99539.28;5018707;28;20025;-65
2023/04/03 00:05:51;;;;;;;10.25;7.45;;;;;;;10.66;57.67;99546.72;5033974;28;20037;-64
2023/04/03 00:08:16;;;;;;;13.50;8.07;;;;;;;10.57;57.75;99543.84;5033317;28;20044;-65
2023/04/03 00:10:42;;;;;;;11.70;8.30;;;;;;;10.69;57.65;99557.16;5018107;28;20041;-63
2023/04/03 00:13:09;;;;;;;9.98;7.63;;;;;;;10.69;57.84;99560.69;5014823;28;20041;-59
2023/04/03 00:15:35;;;;;;;11.77;7.85;;;;;;;10.51;58.07;99528.31;5015228;28;20037;-65
2023/04/03 00:18:01;;;;;;;13.75;8.07;;;;;;;10.71;57.96;99558.72;5015302;28;20107;-64
2023/04/03 00:20:27;;;;;;;13.73;7.57;;;;;;;10.73;57.71;99551.41;5015037;28;20105;-64
2023/04/03 00:22:53;;;;;;;10.45;8.10;;;;;;;10.74;57.31;99553.13;5013787;28;20148;-64
2023/04/03 00:25:19;;;;;;;12.35;8.32;;;;;;;10.74;57.60;99555.78;5015592;28;20429;-64
2023/04/03 00:27:45;;;;;;;10.10;7.90;;;;;;;10.68;57.11;99545.63;5014068;28;20092;-65
2023/04/03 00:30:14;;;;;;;15.15;7.85;;;;;;;10.73;57.05;99543.38;5015121;28;20057;-64
2023/04/03 00:32:40;;;;;;;10.52;8.27;;;;;;;10.70;57.17;99543.66;5014397;28;20049;-64
2023/04/03 00:35:06;;;;;;;12.70;8.98;;;;;;;10.68;57.03;99550.97;5014891;28;20033;-62
2023/04/03 00:37:32;;;;;;;13.57;8.48;;;;;;;10.67;57.13;99551.94;5013785;28;20033;-64
2023/04/03 00:39:57;;;;;;;12.88;8.23;;;;;;;10.65;57.12;99543.19;5014547;28;20088;-65
2023/04/03 00:42:23;;;;;;;13.52;9.13;;;;;;;10.69;57.00;99552.66;5030156;28;20029;-64
2023/04/03 00:44:48;;;;;;;14.13;7.97;;;;;;;10.68;57.15;99545.63;5032548;28;20108;-64
2023/04/03 00:47:17;;;;;;;11.85;8.05;;;;;;;10.66;57.42;99547.56;5034042;28;20046;-66
2023/04/03 00:49:43;;;;;;;17.98;8.85;;;;;;;10.61;57.21;99555.16;5034159;28;20030;-63
2023/04/03 00:52:13;;;;;;;12.70;8.32;;;;;;;10.55;57.72;99555.66;5034150;28;20092;-65
2023/04/03 00:54:42;;;;;;;14.20;8.38;;;;;;;10.45;57.93;99551.09;5033397;28;20041;-63
2023/04/03 00:57:08;;;;;;;10.52;7.57;;;;;;;10.39;57.35;99554.28;5034350;28;20047;-64
2023/04/03 00:59:38;;;;;;;13.75;8.50;;;;;;;10.39;57.55;99559.63;5033408;28;20478;-63
2023/04/03 01:02:04;;;;;;;11.35;8.75;;;;;;;10.27;57.75;99560.63;5034018;28;20065;-65
2023/04/03 01:04:39;;;;;;;11.48;8.18;;;;;;;10.25;57.74;99559.91;5020235;28;20217;-64
2023/04/03 01:07:10;;;;;;;17.13;8.38;;;;;;;10.20;57.99;99555.81;5013870;28;20419;-64
2023/04/03 01:09:37;;;;;;;12.25;8.40;;;;;;;10.15;57.14;99557.16;5014441;28;20033;-64
2023/04/03 01:12:21;;;;;;;12.38;8.48;;;;;;;10.20;57.65;99563.84;5013095;28;20065;-64
2023/04/03 01:14:50;;;;;;;12.40;7.82;;;;;;;10.04;58.01;99564.25;5013727;28;20117;-65
2023/04/03 01:17:27;;;;;;;13.50;8.02;;;;;;;10.03;57.91;99556.34;5013824;28;20030;-63
2023/04/03 01:20:02;;;;;;;12.93;8.60;;;;;;;9.98;57.86;99559.41;5012911;28;20064;-65
2023/04/03 01:22:40;;;;;;;12.57;7.70;;;;;;;9.77;57.85;99529.94;5013456;28;20092;-65
2023/04/03 01:25:06;;;;;;;10.55;8.20;;;;;;;9.77;58.15;99551.31;5026130;28;20427;-64
2023/04/03 01:27:32;;;;;;;14.23;8.55;;;;;;;9.73;58.36;99552.56;5032858;28;20120;-63
2023/04/03 01:29:58;;;;;;;16.50;8.48;;;;;;;9.67;58.35;99545.03;5032273;28;20025;-65
2023/04/03 01:32:23;;;;;;;12.98;8.93;;;;;;;9.69;58.40;99553.78;5033237;28;20044;-66
2023/04/03 01:34:49;;;;;;;14.65;9.02;;;;;;;9.65;58.03;99541.66;5033721;28;20113;-65
2023/04/03 01:37:14;;;;;;;14.15;9.10;;;;;;;9.63;58.39;99555.97;5032383;28;20467;-64
2023/04/03 01:39:40;;;;;;;11.00;7.97;;;;;;;9.60;59.07;99556.22;5026177;28;20076;-63
2023/04/03 01:42:05;;;;;;;11.27;8.50;;;;;;;9.61;59.36;99570.44;5013416;28;20038;-65
2023/04/03 01:44:31;;;;;;;13.20;8.45;;;;;;;9.44;59.07;99529.88;5021566;28;20040;-65
2023/04/03 01:46:56;;;;;;;15.45;9.00;;;;;;;9.65;58.57;99565.72;5033082;28;20099;-64
2023/04/03 01:49:22;;;;;;;13.32;9.10;;;;;;;9.65;58.51;99560.38;5031880;28;20044;-65
2023/04/03 01:51:47;;;;;;;15.68;9.07;;;;;;;9.61;58.73;99557.91;5032783;28;20057;-63
2023/04/03 01:54:13;;;;;;;13.30;9.13;;;;;;;9.57;58.71;99561.81;5033405;28;20372;-59
2023/04/03 01:56:38;;;;;;;13.90;8.93;;;;;;;9.51;58.73;99562.31;5033323;28;20056;-64
2023/04/03 01:59:04;;;;;;;14.10;9.05;;;;;;;9.47;59.07;99559.03;5031456;28;20044;-65
2023/04/03 02:01:30;;;;;;;12.60;9.38;;;;;;;9.43;58.89;99554.06;5030480;28;20040;-65
2023/04/03 02:03:55;;;;;;;12.85;9.30;;;;;;;9.44;59.20;99561.94;5020303;28;20440;-64
2023/04/03 02:06:21;;;;;;;15.52;9.43;;;;;;;9.43;58.98;99554.06;5030731;28;20118;-64
2023/04/03 02:08:46;;;;;;;14.35;9.43;;;;;;;9.43;59.42;99549.56;5032581;28;20131;-64
2023/04/03 02:11:12;;;;;;;13.25;9.40;;;;;;;9.42;59.04;99549.72;5032947;28;20121;-63
2023/04/03 02:13:37;;;;;;;13.40;9.50;;;;;;;9.42;59.14;99550.53;5032877;28;20064;-64
2023/04/03 02:16:08;;;;;;;16.08;8.93;;;;;;;9.49;58.87;99564.25;5017911;28;20034;-63
2023/04/03 02:18:33;;;;;;;12.65;9.10;;;;;;;9.45;59.10;99560.16;5015083;28;20037;-67
2023/04/03 02:20:58;;;;;;;13.68;9.15;;;;;;;9.51;59.03;99558.78;5031006;28;20100;-65
2023/04/03 02:23:24;;;;;;;15.23;9.20;;;;;;;9.52;59.20;99561.34;5032931;28;20112;-65
2023/04/03 02:25:50;;;;;;;16.65;9.57;;;;;;;9.48;59.32;99546.53;5032695;28;20033;-64
2023/04/03 02:28:15;;;;;;;15.88;8.90;;;;;;;9.54;58.95;99555.88;5032449;28;20064;-58
2023/04/03 02:30:40;;;;;;;14.77;9.40;;;;;;;9.51;58.98;99546.28;5032698;28;20384;-64
2023/04/03 02:33:06;;;;;;;12.00;9.27;;;;;;;9.56;58.90;99561.94;5031851;28;20072;-64
2023/04/03 02:35:31;;;;;;;15.45;9.38;;;;;;;9.56;58.74;99556.59;5022059;28;20068;-63
2023/04/03 02:37:57;;;;;;;16.33;9.20;;;;;;;9.58;58.61;99558.16;5027162;28;20053;-65
2023/04/03 02:40:22;;;;;;;14.02;9.90;;;;;;;9.59;58.72;99549.16;5011833;28;20040;-64
2023/04/03 02:42:48;;;;;;;15.02;9.98;;;;;;;9.57;58.79;99551.13;5012394;28;20029;-63
2023/04/03 02:45:13;;;;;;;16.15;9.52;;;;;;;9.56;58.39;99544.06;5013059;28;20030;-65
2023/04/03 02:47:39;;;;;;;16.98;9.70;;;;;;;9.59;58.01;99549.16;5012383;28;20026;-64
2023/04/03 02:50:05;;;;;;;15.32;10.00;;;;;;;9.57;58.42;99558.31;5012379;28;20133;-64
2023/04/03 02:52:31;;;;;;;16.48;9.52;;;;;;;9.54;58.42;99559.38;5011896;28;20033;-64
2023/04/03 02:54:57;;;;;;;16.40;10.05;;;;;;;9.50;58.69;99557.94;5032222;28;20337;-65
2023/04/03 02:57:22;;;;;;;16.60;9.80;;;;;;;9.53;58.64;99565.72;5021441;28;20026;-65
2023/04/03 02:59:47;;;;;;;13.73;10.00;;;;;;;9.55;58.79;99565.59;5016611;28;20044;-66
2023/04/03 03:02:13;;;;;;;17.05;10.95;;;;;;;9.56;58.51;99557.44;5016130;28;20030;-66
2023/04/03 03:04:38;;;;;;;18.45;11.30;;;;;;;9.60;58.22;99553.53;5015286;28;20105;-64
2023/04/03 03:07:04;;;;;;;17.02;11.15;;;;;;;9.59;58.20;99570.56;5016529;28;20080;-65
2023/04/03 03:09:30;;;;;;;17.67;11.48;;;;;;;9.61;58.43;99567.78;5016160;28;20113;-64
2023/04/03 03:11:56;;;;;;;18.13;11.45;;;;;;;9.58;58.35;99573.38;5016048;28;20026;-65
2023/04/03 03:14:22;;;;;;;18.80;11.90;;;;;;;9.58;58.52;99576.03;5016364;28;20085;-66
2023/04/03 03:16:48;;;;;;;18.00;12.50;;;;;;;9.51;58.51;99573.00;5016105;28;20445;-62
2023/04/03 03:19:13;;;;;;;19.33;11.75;;;;;;;9.38;58.71;99546.41;5017070;28;20041;-64
2023/04/03 03:21:39;;;;;;;17.55;11.90;;;;;;;9.54;58.56;99578.09;5016315;28;20034;-64
2023/04/03 03:24:04;;;;;;;21.25;12.65;;;;;;;9.44;58.94;99569.13;5015872;28;20471;-66
2023/04/03 03:26:30;;;;;;;20.10;12.65;;;;;;;9.54;59.05;99574.59;5015564;28;20390;-63
2023/04/03 03:28:55;;;;;;;19.77;12.50;;;;;;;9.63;58.04;99582.69;5015170;28;20026;-65
2023/04/03 03:31:21;;;;;;;22.80;12.55;;;;;;;9.75;57.56;99586.19;5016214;28;20049;-66
2023/04/03 03:33:46;;;;;;;21.85;13.20;;;;;;;9.85;57.48;99580.94;5031970;28;20320;-64
2023/04/03 03:36:12;;;;;;;24.80;12.93;;;;;;;9.95;56.89;99582.88;5035435;28;20112;-66
2023/04/03 03:38:37;;;;;;;21.73;12.45;;;;;;;10.07;56.33;99579.19;5033720;28;20053;-65
2023/04/03 03:41:03;;;;;;;26.50;13.35;;;;;;;10.30;55.11;99576.44;5035740;28;20431;-63
2023/04/03 03:43:28;;;;;;;20.50;12.23;;;;;;;10.58;54.17;99577.66;5033345;28;20698;-64
2023/04/03 03:45:55;;;;;;;20.48;12.82;;;;;;;10.68;53.60;99580.41;5034160;28;20036;-65
2023/04/03 03:48:20;;;;;;;21.08;12.70;;;;;;;10.57;54.00;99561.72;5035484;28;20048;-63
2023/04/03 03:50:47;;;;;;;16.83;12.02;;;;;;;10.86;53.91;99571.81;5035530;28;20132;-64
2023/04/03 03:53:13;;;;;;;19.27;11.27;;;;;;;11.09;53.13;99568.94;5029632;28;20096;-64
2023/04/03 03:55:38;;;;;;;18.75;11.60;;;;;;;11.31;52.40;99566.06;5015176;28;20034;-65
2023/04/03 03:58:04;;;;;;;23.90;12.38;;;;;;;11.97;51.33;99563.00;5023497;28;20083;-65
2023/04/03 04:00:30;;;;;;;21.40;12.50;;;;;;;12.75;49.22;99562.16;5030541;28;20482;-66
2023/04/03 04:02:56;;;;;;;18.55;12.00;;;;;;;12.94;47.69;99538.94;5020309;28;20472;-64
2023/04/03 04:05:22;;;;;;;22.23;12.07;;;;;;;12.92;47.87;99563.25;5034885;28;20124;-64
2023/04/03 04:07:47;;;;;;;17.02;11.80;;;;;;;12.84;48.24;99563.13;5043359;28;20033;-65
2023/04/03 04:10:13;;;;;;;21.63;11.85;;;;;;;12.80;48.78;99567.09;5044868;28;20108;-65
2023/04/03 04:12:39;;;;;;;20.75;11.35;;;;;;;12.88;48.23;99577.97;5038545;28;20063;-65
2023/04/03 04:15:05;;;;;;;16.95;11.48;;;;;;;12.99;47.99;99571.56;5043242;28;20053;-65
2023/04/03 04:17:31;;;;;;;20.15;12.32;;;;;;;12.90;47.84;99560.72;5040641;28;20622;-64
2023/04/03 04:19:56;;;;;;;20.80;13.52;;;;;;;13.06;47.67;99584.28;5044745;28;20107;-65
2023/04/03 04:22:21;;;;;;;20.38;11.77;;;;;;;12.94;47.68;99577.38;5042898;28;20097;-64
2023/04/03 04:24:47;;;;;;;23.33;11.82;;;;;;;12.78;47.78;99577.97;5044423;28;20030;-66
2023/04/03 04:27:12;;;;;;;18.45;12.63;;;;;;;12.52;48.11;99550.88;5042403;28;20068;-66
2023/04/03 04:29:38;;;;;;;20.83;12.68;;;;;;;12.43;48.47;99591.03;5044450;28;20025;-65
2023/04/03 04:32:04;;;;;;;22.17;13.25;;;;;;;12.24;49.18;99591.00;5042961;28;20068;-66
2023/04/03 04:34:29;;;;;;;23.40;13.15;;;;;;;12.14;49.34;99581.13;5041596;28;20033;-65
2023/04/03 04:36:55;;;;;;;20.92;12.88;;;;;;;12.23;49.39;99586.63;5043921;28;20420;-67
2023/04/03 04:39:21;;;;;;;25.67;13.73;;;;;;;12.19;49.19;99592.28;5041391;28;20036;-62
2023/04/03 04:41:46;;;;;;;28.00;13.20;;;;;;;12.13;49.60;99594.69;5043644;28;20101;-66
2023/04/03 04:44:11;;;;;;;22.70;12.82;;;;;;;11.94;49.66;99565.97;5041985;28;20068;-63
2023/04/03 04:46:37;;;;;;;26.70;13.70;;;;;;;12.13;49.50;99600.91;5043548;28;20056;-65
2023/04/03 04:49:02;;;;;;;25.17;13.43;;;;;;;12.10;49.54;99594.97;5042333;28;20105;-63
2023/04/03 04:51:28;;;;;;;32.08;13.98;;;;;;;12.16;49.45;99599.75;5042056;28;20452;-66
2023/04/03 04:53:53;;;;;;;26.48;13.02;;;;;;;12.25;48.49;99598.94;5043997;28;20332;-64
2023/04/03 04:56:19;;;;;;;26.63;12.80;;;;;;;12.15;48.72;99577.47;5040943;28;20024;-65
2023/04/03 04:58:45;;;;;;;19.88;12.05;;;;;;;12.25;47.97;99576.59;5042591;28;20036;-67
2023/04/03 05:01:11;;;;;;;28.98;13.02;;;;;;;12.44;48.16;99605.31;5041257;28;20582;-66
2023/04/03 05:03:36;;;;;;;26.38;13.90;;;;;;;12.55;47.60;99612.38;5043511;28;20448;-66
2023/04/03 05:06:02;;;;;;;27.65;12.82;;;;;;;12.67;47.45;99608.53;5042152;28;20076;-64
2023/04/03 05:08:28;;;;;;;25.98;12.88;;;;;;;12.84;46.54;99604.25;5042318;28;20067;-63
2023/04/03 05:10:54;;;;;;;26.30;13.48;;;;;;;13.00;46.25;99600.97;5042833;28;20053;-65
2023/04/03 05:13:19;;;;;;;22.75;12.25;;;;;;;13.30;45.63;99604.44;5041689;28;20167;-65
2023/04/03 05:15:45;;;;;;;27.77;12.65;;;;;;;13.57;44.80;99607.31;5042484;28;20043;-65
2023/04/03 05:18:11;;;;;;;27.40;12.50;;;;;;;13.49;44.34;99576.66;5040705;28;20029;-64
2023/04/03 05:20:36;;;;;;;23.63;12.70;;;;;;;13.62;44.21;99572.75;5042482;28;20036;-64
2023/04/03 05:23:02;;;;;;;25.70;12.45;;;;;;;13.78;43.94;99599.00;5041584;28;20363;-63
2023/04/03 05:25:28;;;;;;;25.92;12.43;;;;;;;13.73;44.40;99602.16;5044279;28;20442;-65
2023/04/03 05:27:53;;;;;;;21.92;12.23;;;;;;;13.72;44.38;99602.28;5041215;28;20033;-65
2023/04/03 05:30:19;;;;;;;23.38;12.13;;;;;;;13.52;44.10;99564.75;5035990;28;20029;-65
2023/04/03 05:32:45;;;;;;;26.20;11.35;;;;;;;13.58;44.40;99607.19;5019615;28;20467;-65
2023/04/03 05:35:11;;;;;;;25.83;12.18;;;;;;;13.42;44.87;99601.56;5013834;28;20423;-66
2023/04/03 05:37:36;;;;;;;28.30;12.18;;;;;;;13.13;44.78;99581.84;5017429;28;20081;-66
2023/04/03 05:40:04;;;;;;;22.05;12.00;;;;;;;13.15;45.12;99604.06;5032144;28;20076;-65
2023/04/03 05:42:29;;;;;;;19.55;11.88;;;;;;;12.91;45.65;99607.22;5032437;28;20025;-66
2023/04/03 05:44:55;;;;;;;25.15;11.98;;;;;;;12.78;45.92;99600.34;5033280;28;20033;-67
2023/04/03 05:47:20;;;;;;;21.10;10.82;;;;;;;12.63;46.69;99607.13;5033395;28;20025;-67
2023/04/03 05:49:46;;;;;;;28.75;13.00;;;;;;;12.51;46.87;99603.75;5032378;28;20075;-66
2023/04/03 05:52:25;;;;;;;24.15;12.07;;;;;;;12.52;47.32;99609.94;5032894;28;20795;-65
2023/04/03 05:54:50;;;;;;;21.05;12.27;;;;;;;12.40;47.09;99612.78;5014552;28;20087;-65
2023/04/03 05:57:16;;;;;;;27.35;12.75;;;;;;;12.17;47.32;99596.09;5013274;28;20045;-64
2023/04/03 05:59:46;;;;;;;23.90;11.98;;;;;;;12.22;48.04;99623.38;5027692;28;20384;-66
2023/04/03 06:02:14;;;;;;;23.83;12.82;;;;;;;12.16;47.63;99624.78;5032787;28;20107;-65
2023/04/03 06:04:40;;;;;;;23.13;11.98;;;;;;;12.16;47.45;99619.41;5033025;28;20090;-65
2023/04/03 06:07:07;;;;;;;24.25;12.63;;;;;;;12.16;47.45;99634.66;5032960;28;20029;-66
2023/04/03 06:09:32;;;;;;;23.52;12.30;;;;;;;12.23;47.57;99626.91;5032661;28;20115;-65
2023/04/03 06:11:58;;;;;;;21.33;11.85;;;;;;;12.18;47.83;99619.28;5022507;28;20500;-67
2023/04/03 06:14:25;;;;;;;19.77;11.90;;;;;;;12.18;47.95;99630.03;5025574;28;20047;-61
2023/04/03 06:16:51;;;;;;;22.98;12.48;;;;;;;12.18;48.02;99646.94;5033122;28;20452;-65
2023/04/03 06:19:17;;;;;;;25.05;12.48;;;;;;;12.12;47.82;99643.97;5029995;28;20038;-66
2023/04/03 06:21:42;;;;;;;22.25;12.70;;;;;;;12.03;48.51;99651.00;5032605;28;20152;-64
2023/04/03 06:24:12;;;;;;;22.77;13.05;;;;;;;12.03;48.52;99651.00;5032833;28;20087;-66
2023/04/03 06:26:38;;;;;;;26.00;13.30;;;;;;;12.05;48.48;99652.56;5031871;28;20059;-66
2023/04/03 06:29:03;;;;;;;31.73;13.70;;;;;;;12.09;48.41;99641.56;5031559;28;20030;-65
2023/04/03 06:31:29;;;;;;;27.95;13.57;;;;;;;12.16;48.52;99651.63;5032181;28;20051;-66
2023/04/03 06:33:56;;;;;;;21.17;13.70;;;;;;;12.11;48.74;99635.09;5031054;28;20065;-62
2023/04/03 06:36:22;;;;;;;30.25;14.68;;;;;;;12.23;48.28;99643.88;5032261;28;20434;-66
2023/04/03 06:38:48;;;;;;;29.33;13.70;;;;;;;12.29;47.65;99631.69;5032404;28;20409;-66
2023/04/03 06:41:14;;;;;;;25.38;13.25;;;;;;;12.39;47.72;99639.75;5030682;28;20045;-69
2023/04/03 06:43:39;;;;;;;22.90;13.93;;;;;;;12.55;47.39;99641.91;5032209;28;20095;-64
2023/04/03 06:46:05;;;;;;;30.00;13.52;;;;;;;12.77;46.85;99641.59;5032162;28;20452;-66
2023/04/03 06:48:31;;;;;;;24.17;13.15;;;;;;;12.96;46.09;99644.41;5028833;28;20033;-65
2023/04/03 06:50:56;;;;;;;29.67;13.35;;;;;;;13.12;45.74;99633.91;5012714;28;20053;-62
2023/04/03 06:53:22;;;;;;;26.48;13.45;;;;;;;13.26;45.45;99632.63;5012517;28;20042;-65
2023/04/03 06:55:48;;;;;;;29.33;13.35;;;;;;;13.42;45.01;99640.06;5012422;28;20096;-64
2023/04/03 06:58:15;;;;;;;27.15;13.95;;;;;;;13.57;44.89;99640.47;5012662;28;20392;-66
2023/04/03 07:00:40;;;;;;;23.35;13.25;;;;;;;13.70;44.54;99636.56;5012042;28;20496;-66
2023/04/03 07:03:06;;;;;;;24.55;13.68;;;;;;;13.92;44.31;99638.84;5031126;28;20140;-66
2023/04/03 07:05:32;;;;;;;27.55;13.65;;;;;;;14.19;43.56;99647.06;5032078;28;20037;-65
2023/04/03 07:07:57;;;;;;;26.73;13.68;;;;;;;14.48;42.70;99641.47;5031647;28;20035;-61
2023/04/03 07:10:22;;;;;;;27.58;13.57;;;;;;;14.81;41.86;99643.63;5031092;28;20111;-66
2023/04/03 07:12:48;;;;;;;34.65;14.60;;;;;;;15.16;41.03;99635.63;5032289;28;20037;-65
2023/04/03 07:15:14;;;;;;;24.65;13.38;;;;;;;15.64;40.23;99642.31;5021613;28;20623;-62
2023/04/03 07:17:40;;;;;;;23.58;13.77;;;;;;;16.20;38.94;99631.06;5023734;28;20037;-63
2023/04/03 07:20:07;;;;;;;27.15;13.98;;;;;;;16.86;37.79;99637.53;5019193;28;20037;-63
2023/04/03 07:22:32;;;;;;;26.52;14.80;;;;;;;17.62;36.35;99640.81;5022986;28;20464;-61
2023/04/03 07:24:58;;;;;;;26.05;14.75;;;;;;;18.63;34.82;99631.97;5015172;28;20026;-64
2023/04/03 07:27:25;;;;;;;26.73;13.57;;;;;;;19.54;33.34;99635.75;5021458;28;20036;-62
2023/04/03 07:29:50;;;;;;;28.65;13.73;;;;;;;20.41;31.89;99635.16;5016119;28;20040;-62
2023/04/03 07:32:17;;;;;;;27.90;14.60;;;;;;;21.30;30.48;99633.00;5025408;28;20022;-63
2023/04/03 07:34:43;;;;;;;28.38;14.55;;;;;;;22.18;29.22;99632.41;5012119;28;20030;-63
2023/04/03 07:37:08;;;;;;;26.20;13.95;;;;;;;22.85;27.59;99642.63;5011879;28;20478;-62
2023/04/03 07:39:34;;;;;;;21.50;13.07;;;;;;;23.27;26.93;99647.03;5012254;28;20034;-61
2023/04/03 07:42:01;;;;;;;25.23;13.55;;;;;;;23.69;26.35;99646.78;5011918;28;20360;-62
2023/04/03 07:44:27;;;;;;;25.50;13.98;;;;;;;23.74;25.94;99657.91;5014914;28;20080;-64
2023/04/03 07:46:55;;;;;;;20.48;12.80;;;;;;;23.30;26.24;99639.28;5035587;28;20036;-61
2023/04/03 07:49:22;;;;;;;24.70;13.50;;;;;;;22.82;26.70;99642.22;5054255;28;20047;-62
2023/04/03 07:51:48;;;;;;;21.48;12.68;;;;;;;22.41;27.05;99642.09;5054753;28;20048;-62
2023/04/03 07:54:15;;;;;;;21.73;12.77;;;;;;;22.02;27.77;99638.22;5054556;28;20426;-62
2023/04/03 07:56:42;;;;;;;25.83;12.80;;;;;;;21.62;27.88;99642.41;5054977;28;20040;-62
2023/04/03 07:59:08;;;;;;;27.13;13.25;;;;;;;21.34;28.35;99643.28;5044788;28;20048;-58
2023/04/03 08:01:34;;;;;;;26.25;13.63;;;;;;;21.19;28.38;99639.81;5025989;28;20356;-51
2023/04/03 08:03:59;;;;;;;26.92;13.63;;;;;;;21.09;28.44;99634.72;5030599;28;20034;-53
2023/04/03 08:06:25;;;;;;;21.23;13.52;;;;;;;21.09;28.50;99645.59;5022495;28;20038;-56
2023/04/03 08:08:51;;;;;;;31.33;14.27;;;;;;;21.03;28.27;99636.38;5026038;28;20037;-56
2023/04/03 08:11:18;;;;;;;25.80;12.40;;;;;;;20.89;28.52;99640.00;5015526;28;20034;-57
2023/04/03 08:13:44;;;;;;;27.80;12.98;;;;;;;20.66;28.93;99635.59;5015558;28;20037;-57
2023/04/03 08:16:16;;;;;;;33.47;14.15;;;;;;;20.75;29.31;99642.59;5017575;28;20029;-60
2023/04/03 08:18:42;;;;;;;23.50;13.30;;;;;;;20.67;28.56;99631.84;5019564;28;20057;-59
2023/04/03 08:21:12;;;;;;;26.05;13.82;;;;;;;20.65;29.28;99633.91;5013972;28;20065;-58
2023/04/03 08:23:39;;;;;;;23.75;13.75;;;;;;;20.35;29.20;99625.88;5029261;28;20033;-72
2023/04/03 08:26:13;;;;;;;25.95;13.60;;;;;;;20.18;29.59;99615.25;5013756;28;20033;-62
2023/04/03 08:28:40;;;;;;;28.03;13.83;;;;;;;20.15;29.57;99645.53;5029978;28;20045;-62
2023/04/03 08:31:07;;;;;;;26.33;14.95;;;;;;;19.75;30.07;99644.97;5040942;28;20035;-63
2023/04/03 08:33:36;;;;;;;29.60;15.85;;;;;;;19.27;31.38;99642.66;5042087;28;20083;-62
2023/04/03 08:36:04;;;;;;;27.88;15.57;;;;;;;19.05;32.13;99650.66;5034660;28;20033;-62
2023/04/03 08:38:29;;;;;;;35.22;16.23;;;;;;;19.02;32.35;99648.31;5040383;28;20056;-61
2023/04/03 08:41:32;;;;;;;32.50;16.15;;;;;;;19.16;31.98;99641.22;5040341;28;20121;-64
2023/04/03 08:44:09;;;;;;;39.63;16.30;;;;;;;19.24;32.01;99660.13;5040693;28;20039;-63
2023/04/03 08:46:57;;;;;;;28.85;16.75;;;;;;;19.45;32.22;99650.44;5039729;28;20052;-60
2023/04/03 08:49:28;;;;;;;28.13;16.98;;;;;;;19.40;31.72;99661.84;5039301;28;20048;-62
2023/04/03 08:51:56;;;;;;;30.60;16.27;;;;;;;19.11;31.93;99659.94;5041600;28;20049;-61
2023/04/03 08:54:29;;;;;;;26.17;16.77;;;;;;;18.93;32.20;99659.22;5039361;28;20443;-63
2023/04/03 08:56:57;;;;;;;35.53;16.90;;;;;;;18.56;32.75;99663.56;5039929;28;20037;-63
2023/04/03 08:59:32;;;;;;;34.53;16.83;;;;;;;18.49;33.21;99663.44;5039407;28;20037;-63
2023/04/03 09:01:59;;;;;;;36.45;18.13;;;;;;;18.25;33.44;99666.28;5036604;28;20048;-63
2023/04/03 09:04:27;;;;;;;34.28;16.90;;;;;;;18.02;33.62;99648.13;5037415;28;20034;-62
2023/04/03 09:06:57;;;;;;;35.20;16.83;;;;;;;18.22;33.91;99668.34;5039033;28;20036;-63
2023/04/03 09:09:40;;;;;;;39.17;17.60;;;;;;;18.55;33.61;99667.28;5037651;28;20053;-65
2023/04/03 09:12:26;;;;;;;36.75;17.38;;;;;;;18.70;33.76;99670.06;5038244;28;20090;-62
2023/04/03 09:15:13;;;;;;;37.35;17.40;;;;;;;18.84;33.15;99675.75;5035394;28;20096;-64
2023/04/03 09:18:05;;;;;;;42.00;17.50;;;;;;;18.99;32.84;99676.63;5032334;28;20048;-63
2023/04/03 09:21:07;;;;;;;31.45;16.25;;;;;;;19.36;32.43;99680.38;5019111;28;20060;-66
2023/04/03 09:23:36;;;;;;;35.53;16.98;;;;;;;19.16;31.83;99685.47;5040081;28;20033;-62
2023/04/03 09:26:07;;;;;;;36.10;15.90;;;;;;;19.02;32.42;99686.28;5039187;28;20444;-64
2023/04/03 09:28:37;;;;;;;33.33;15.77;;;;;;;18.97;32.71;99686.81;5041899;28;20033;-61
2023/04/03 09:31:24;;;;;;;35.38;17.35;;;;;;;19.04;32.96;99681.53;5039429;28;20029;-64
2023/04/03 09:33:54;;;;;;;30.98;17.60;;;;;;;18.90;32.90;99691.28;5022480;28;20127;-63
2023/04/03 09:36:47;;;;;;;38.20;17.15;;;;;;;18.74;33.12;99684.13;5027679;28;20422;-62
2023/04/03 09:39:21;;;;;;;34.78;14.77;;;;;;;18.50;33.45;99686.81;5028189;28;20041;-63
2023/04/03 09:41:56;;;;;;;28.17;14.68;;;;;;;18.50;33.03;99681.38;5024315;28;20045;-62
2023/04/03 09:44:25;;;;;;;29.55;13.85;;;;;;;18.19;32.86;99678.66;5033370;28;20448;-62
2023/04/03 09:46:51;;;;;;;30.58;15.32;;;;;;;17.84;33.48;99680.84;5030988;28;20041;-62
2023/04/03 09:49:17;;;;;;;29.33;14.50;;;;;;;17.82;34.09;99685.59;5038132;28;20026;-63
2023/04/03 09:51:43;;;;;;;29.50;14.38;;;;;;;17.85;33.14;99691.50;5038861;28;20053;-61
2023/04/03 09:54:30;;;;;;;29.42;13.90;;;;;;;17.94;33.70;99660.66;5023123;28;20041;-63
2023/04/03 09:57:01;;;;;;;29.90;14.15;;;;;;;18.02;33.15;99688.75;5036885;28;20440;-63
2023/04/03 09:59:26;;;;;;;27.75;14.73;;;;;;;18.01;33.07;99687.03;5035119;28;20407;-64
2023/04/03 10:02:31;;;;;;;24.58;14.23;;;;;;;18.13;33.64;99685.66;5038562;28;20152;-62
2023/04/03 10:04:57;;;;;;;26.50;13.73;;;;;;;17.85;33.10;99664.44;5035256;28;20450;-62
2023/04/03 10:07:35;;;;;;;31.20;14.05;;;;;;;18.03;32.81;99687.72;5037746;28;20083;-61
2023/04/03 10:10:25;;;;;;;29.17;14.07;;;;;;;18.18;33.43;99683.25;5040332;28;20035;-63
2023/04/03 10:13:26;;;;;;;23.52;13.40;;;;;;;18.22;33.26;99683.75;5041288;28;20075;-62
2023/04/03 10:16:01;;;;;;;27.23;13.32;;;;;;;18.07;32.51;99684.50;5013349;28;20033;-63
2023/04/03 10:18:44;;;;;;;23.40;12.63;;;;;;;18.14;32.56;99681.06;5024911;28;20513;-61
2023/04/03 10:21:19;;;;;;;25.38;14.02;;;;;;;18.19;31.91;99689.50;5016095;28;20038;-62
2023/04/03 10:24:09;;;;;;;27.80;14.27;;;;;;;18.34;31.91;99695.06;5027685;28;20061;-62
2023/04/03 10:26:58;;;;;;;22.02;13.45;;;;;;;18.31;32.21;99696.25;5037182;28;20036;-62
2023/04/03 10:29:40;;;;;;;31.58;15.02;;;;;;;17.94;32.65;99697.72;5033768;28;20028;-62
2023/04/03 10:32:34;;;;;;;27.42;14.32;;;;;;;17.88;33.31;99698.44;5034855;28;20036;-62
2023/04/03 10:35:17;;;;;;;26.83;14.27;;;;;;;17.78;33.63;99693.22;5036602;28;20097;-64
2023/04/03 10:38:32;;;;;;;32.47;14.68;;;;;;;17.76;33.78;99703.38;5037968;28;20506;-63
2023/04/03 10:41:18;;;;;;;26.13;15.30;;;;;;;17.78;33.93;99704.03;5035935;28;20481;-62
2023/04/03 10:44:02;;;;;;;26.25;13.20;;;;;;;17.65;33.05;99705.44;5033849;28;20118;-60
2023/04/03 10:46:32;;;;;;;28.67;13.55;;;;;;;17.39;33.48;99700.25;5036879;28;20033;-61
2023/04/03 10:49:07;;;;;;;25.65;14.20;;;;;;;17.33;34.07;99706.34;5039846;28;20017;-62
2023/04/03 10:51:51;;;;;;;32.95;14.18;;;;;;;17.27;33.95;99698.91;5037416;28;20157;-62
2023/04/03 10:54:30;;;;;;;27.77;14.60;;;;;;;17.04;34.46;99695.03;5038569;28;20409;-64
2023/04/03 10:57:01;;;;;;;26.75;13.15;;;;;;;17.03;33.86;99701.44;5033592;28;20024;-62
2023/04/03 10:59:36;;;;;;;26.23;12.70;;;;;;;17.04;33.79;99705.03;5037122;28;20074;-63
2023/04/03 11:02:31;;;;;;;21.70;10.77;;;;;;;17.15;33.61;99709.25;5038119;28;20024;-64
2023/04/03 11:05:09;;;;;;;24.73;10.30;;;;;;;17.07;32.49;99708.22;5038533;28;20364;-62
2023/04/03 11:07:40;;;;;;;17.05;10.23;;;;;;;17.17;32.88;99699.09;5015474;28;20041;-62
2023/04/03 11:10:16;;;;;;;21.88;11.73;;;;;;;17.35;32.84;99698.91;5022141;28;20040;-64
2023/04/03 11:13:12;;;;;;;25.27;11.10;;;;;;;17.59;32.80;99699.88;5024676;28;20033;-58
2023/04/03 11:15:38;;;;;;;24.85;11.07;;;;;;;17.53;32.67;99689.75;5024829;28;20038;-65
2023/04/03 11:18:10;;;;;;;29.08;11.57;;;;;;;17.50;33.04;99696.34;5023908;28;20080;-65
2023/04/03 11:20:37;;;;;;;19.40;10.95;;;;;;;17.41;33.20;99687.38;5035121;28;20033;-65
2023/04/03 11:23:14;;;;;;;21.65;11.50;;;;;;;17.55;32.39;99688.53;5034639;28;20456;-65
2023/04/03 11:25:42;;;;;;;24.38;11.73;;;;;;;17.50;32.67;99693.63;5035029;28;20084;-64
2023/04/03 11:28:14;;;;;;;29.42;12.40;;;;;;;17.63;33.23;99690.38;5017840;28;20029;-64
2023/04/03 11:30:49;;;;;;;22.75;11.48;;;;;;;17.82;33.02;99689.13;5035494;28;20075;-64